sensor_id;sensor_type;location;lat;lon;timestamp;temperature;humidity
18091;DHT22;9172;49.948;9.208;2022-12-18T00:01:49;-5.20;99.90
18091;DHT22;9172;49.948;9.208;2022-12-18T00:06:58;-5.30;99.90
18091;DHT22;9172;49.948;9.208;2022-12-18T00:09:27;-5.30;99.90
18091;DHT22;9172;49.948;9.208;2022-12-18T00:11:56;-5.40;99.90
18091;DHT22;9172;49.948;9.208;2022-12-18T00:14:26;-5.50;99.90
18091;DHT22;9172;49.948;9.208;2022-12-18T00:16:54;-5.70;99.90
18091;DHT22;9172;49.948;9.208;2022-12-18T00:19:23;-5.70;99.90
18091;DHT22;9172;49.948;9.208;2022-12-18T00:21:51;-5.70;99.90
18091;DHT22;9172;49.948;9.208;2022-12-18T00:24:20;-5.70;99.90
18091;DHT22;9172;49.948;9.208;2022-12-18T00:26:48;-5.60;99.90
18091;DHT22;9172;49.948;9.208;2022-12-18T00:29:18;-5.50;99.90
18091;DHT22;9172;49.948;9.208;2022-12-18T00:31:46;-5.50;99.90
18091;DHT22;9172;49.948;9.208;2022-12-18T00:34:16;-5.40;99.90
18091;DHT22;9172;49.948;9.208;2022-12-18T00:36:46;-5.40;99.90
18091;DHT22;9172;49.948;9.208;2022-12-18T00:39:15;-5.50;99.90
18091;DHT22;9172;49.948;9.208;2022-12-18T00:41:44;-5.50;99.90
18091;DHT22;9172;49.948;9.208;2022-12-18T00:44:32;-5.50;99.90
18091;DHT22;9172;49.948;9.208;2022-12-18T00:47:00;-5.50;99.90
18091;DHT22;9172;49.948;9.208;2022-12-18T00:49:29;-5.50;99.90
18091;DHT22;9172;49.948;9.208;2022-12-18T00:51:59;-5.80;99.90
18091;DHT22;9172;49.948;9.208;2022-12-18T00:54:28;-6.10;99.90
18091;DHT22;9172;49.948;9.208;2022-12-18T00:56:58;-6.00;99.90
18091;DHT22;9172;49.948;9.208;2022-12-18T00:59:27;-5.90;99.90
18091;DHT22;9172;49.948;9.208;2022-12-18T01:02:17;-5.80;99.90
18091;DHT22;9172;49.948;9.208;2022-12-18T01:04:45;-5.70;99.90
18091;DHT22;9172;49.948;9.208;2022-12-18T01:07:15;-5.60;99.90
18091;DHT22;9172;49.948;9.208;2022-12-18T01:09:44;-5.60;99.90
18091;DHT22;9172;49.948;9.208;2022-12-18T01:12:13;-5.60;99.90
18091;DHT22;9172;49.948;9.208;2022-12-18T01:14:42;-5.60;99.90
18091;DHT22;9172;49.948;9.208;2022-12-18T01:17:10;-5.60;99.90
18091;DHT22;9172;49.948;9.208;2022-12-18T01:19:40;-5.50;99.90
18091;DHT22;9172;49.948;9.208;2022-12-18T01:22:09;-5.50;99.90
18091;DHT22;9172;49.948;9.208;2022-12-18T01:24:37;-5.50;99.90
18091;DHT22;9172;49.948;9.208;2022-12-18T01:27:06;-5.60;99.90
18091;DHT22;9172;49.948;9.208;2022-12-18T01:29:35;-5.60;99.90
18091;DHT22;9172;49.948;9.208;2022-12-18T01:32:04;-5.60;99.90
18091;DHT22;9172;49.948;9.208;2022-12-18T01:34:33;-5.60;99.90
18091;DHT22;9172;49.948;9.208;2022-12-18T01:37:03;-5.60;99.90
18091;DHT22;9172;49.948;9.208;2022-12-18T01:39:33;-5.60;99.90
18091;DHT22;9172;49.948;9.208;2022-12-18T01:42:08;-5.60;99.90
18091;DHT22;9172;49.948;9.208;2022-12-18T01:45:01;-5.60;99.90
18091;DHT22;9172;49.948;9.208;2022-12-18T01:47:39;-5.70;99.90
18091;DHT22;9172;49.948;9.208;2022-12-18T01:50:11;-5.90;99.90
18091;DHT22;9172;49.948;9.208;2022-12-18T01:52:42;-6.00;99.90
18091;DHT22;9172;49.948;9.208;2022-12-18T01:55:12;-6.00;99.90
18091;DHT22;9172;49.948;9.208;2022-12-18T01:57:43;-6.10;99.90
18091;DHT22;9172;49.948;9.208;2022-12-18T02:00:15;-6.30;99.90
18091;DHT22;9172;49.948;9.208;2022-12-18T02:02:47;-6.30;99.90
18091;DHT22;9172;49.948;9.208;2022-12-18T02:05:17;-6.30;99.90
18091;DHT22;9172;49.948;9.208;2022-12-18T02:07:52;-6.20;99.90
18091;DHT22;9172;49.948;9.208;2022-12-18T02:10:24;-6.00;99.90
18091;DHT22;9172;49.948;9.208;2022-12-18T02:12:56;-5.90;99.90
18091;DHT22;9172;49.948;9.208;2022-12-18T02:15:29;-5.80;99.90
18091;DHT22;9172;49.948;9.208;2022-12-18T02:20:35;-5.70;99.90
18091;DHT22;9172;49.948;9.208;2022-12-18T02:23:11;-5.80;99.90
18091;DHT22;9172;49.948;9.208;2022-12-18T02:28:56;-6.20;99.90
18091;DHT22;9172;49.948;9.208;2022-12-18T02:31:27;-6.40;99.90
18091;DHT22;9172;49.948;9.208;2022-12-18T02:33:58;-6.30;99.90
18091;DHT22;9172;49.948;9.208;2022-12-18T02:36:29;-6.20;99.90
18091;DHT22;9172;49.948;9.208;2022-12-18T02:39:00;-6.10;99.90
18091;DHT22;9172;49.948;9.208;2022-12-18T02:41:30;-6.00;99.90
18091;DHT22;9172;49.948;9.208;2022-12-18T02:44:02;-5.90;99.90
18091;DHT22;9172;49.948;9.208;2022-12-18T02:46:34;-5.80;99.90
18091;DHT22;9172;49.948;9.208;2022-12-18T02:49:09;-5.80;99.90
18091;DHT22;9172;49.948;9.208;2022-12-18T02:51:42;-5.90;99.90
18091;DHT22;9172;49.948;9.208;2022-12-18T02:54:15;-6.10;99.90
18091;DHT22;9172;49.948;9.208;2022-12-18T02:56:47;-6.20;99.90
18091;DHT22;9172;49.948;9.208;2022-12-18T02:59:17;-6.20;99.90
18091;DHT22;9172;49.948;9.208;2022-12-18T03:01:52;-6.10;99.90
18091;DHT22;9172;49.948;9.208;2022-12-18T03:04:24;-6.00;99.90
18091;DHT22;9172;49.948;9.208;2022-12-18T03:06:55;-5.90;99.90
18091;DHT22;9172;49.948;9.208;2022-12-18T03:09:28;-5.80;99.90
18091;DHT22;9172;49.948;9.208;2022-12-18T03:12:01;-5.80;99.90
18091;DHT22;9172;49.948;9.208;2022-12-18T03:14:49;-5.80;99.90
18091;DHT22;9172;49.948;9.208;2022-12-18T03:17:21;-5.80;99.90
18091;DHT22;9172;49.948;9.208;2022-12-18T03:19:52;-5.70;99.90
18091;DHT22;9172;49.948;9.208;2022-12-18T03:22:23;-5.80;99.90
18091;DHT22;9172;49.948;9.208;2022-12-18T03:24:54;-5.80;99.90
18091;DHT22;9172;49.948;9.208;2022-12-18T03:27:26;-5.80;99.90
18091;DHT22;9172;49.948;9.208;2022-12-18T03:29:59;-5.80;99.90
18091;DHT22;9172;49.948;9.208;2022-12-18T03:32:31;-5.70;99.90
18091;DHT22;9172;49.948;9.208;2022-12-18T03:35:04;-5.70;99.90
18091;DHT22;9172;49.948;9.208;2022-12-18T03:37:34;-5.70;99.90
18091;DHT22;9172;49.948;9.208;2022-12-18T03:40:04;-5.70;99.90
18091;DHT22;9172;49.948;9.208;2022-12-18T03:42:37;-5.60;99.90
18091;DHT22;9172;49.948;9.208;2022-12-18T03:45:10;-5.70;99.90
18091;DHT22;9172;49.948;9.208;2022-12-18T03:47:50;-5.70;99.90
18091;DHT22;9172;49.948;9.208;2022-12-18T03:50:15;-5.70;99.90
18091;DHT22;9172;49.948;9.208;2022-12-18T03:52:48;-5.70;99.90
18091;DHT22;9172;49.948;9.208;2022-12-18T03:55:18;-5.80;99.90
18091;DHT22;9172;49.948;9.208;2022-12-18T03:57:49;-5.70;99.90
18091;DHT22;9172;49.948;9.208;2022-12-18T04:00:19;-5.60;99.90
18091;DHT22;9172;49.948;9.208;2022-12-18T04:02:50;-5.60;99.90
18091;DHT22;9172;49.948;9.208;2022-12-18T04:05:20;-5.70;99.90
18091;DHT22;9172;49.948;9.208;2022-12-18T04:07:50;-5.70;99.90
18091;DHT22;9172;49.948;9.208;2022-12-18T04:10:20;-5.80;99.90
18091;DHT22;9172;49.948;9.208;2022-12-18T04:12:48;-5.80;99.90
18091;DHT22;9172;49.948;9.208;2022-12-18T04:15:17;-5.90;99.90
18091;DHT22;9172;49.948;9.208;2022-12-18T04:17:49;-5.90;99.90
18091;DHT22;9172;49.948;9.208;2022-12-18T04:20:18;-6.00;99.90
18091;DHT22;9172;49.948;9.208;2022-12-18T04:22:47;-6.10;99.90
18091;DHT22;9172;49.948;9.208;2022-12-18T04:25:16;-6.20;99.90
18091;DHT22;9172;49.948;9.208;2022-12-18T04:27:44;-6.10;99.90
18091;DHT22;9172;49.948;9.208;2022-12-18T04:30:13;-6.10;99.90
18091;DHT22;9172;49.948;9.208;2022-12-18T04:32:42;-6.00;99.90
18091;DHT22;9172;49.948;9.208;2022-12-18T04:35:11;-6.10;99.90
18091;DHT22;9172;49.948;9.208;2022-12-18T04:37:41;-6.00;99.90
18091;DHT22;9172;49.948;9.208;2022-12-18T04:40:12;-6.00;99.90
18091;DHT22;9172;49.948;9.208;2022-12-18T04:42:40;-5.90;99.90
18091;DHT22;9172;49.948;9.208;2022-12-18T04:45:10;-5.80;99.90
18091;DHT22;9172;49.948;9.208;2022-12-18T04:47:38;-5.70;99.90
18091;DHT22;9172;49.948;9.208;2022-12-18T04:50:09;-5.70;99.90
18091;DHT22;9172;49.948;9.208;2022-12-18T04:52:38;-5.70;99.90
18091;DHT22;9172;49.948;9.208;2022-12-18T04:55:07;-5.80;99.90
18091;DHT22;9172;49.948;9.208;2022-12-18T04:57:36;-5.80;99.90
18091;DHT22;9172;49.948;9.208;2022-12-18T05:00:07;-5.80;99.90
18091;DHT22;9172;49.948;9.208;2022-12-18T05:05:13;-5.70;99.90
18091;DHT22;9172;49.948;9.208;2022-12-18T05:07:41;-5.60;99.90
18091;DHT22;9172;49.948;9.208;2022-12-18T05:10:11;-5.60;99.90
18091;DHT22;9172;49.948;9.208;2022-12-18T05:12:39;-5.60;99.90
18091;DHT22;9172;49.948;9.208;2022-12-18T05:15:27;-5.60;99.90
18091;DHT22;9172;49.948;9.208;2022-12-18T05:17:57;-5.50;99.90
18091;DHT22;9172;49.948;9.208;2022-12-18T05:20:25;-5.40;99.90
18091;DHT22;9172;49.948;9.208;2022-12-18T05:22:55;-5.20;99.90
18091;DHT22;9172;49.948;9.208;2022-12-18T05:25:25;-5.10;99.90
18091;DHT22;9172;49.948;9.208;2022-12-18T05:30:31;-5.00;99.90
18091;DHT22;9172;49.948;9.208;2022-12-18T05:32:59;-5.00;99.90
18091;DHT22;9172;49.948;9.208;2022-12-18T05:35:29;-4.90;99.90
18091;DHT22;9172;49.948;9.208;2022-12-18T05:37:59;-4.80;99.90
18091;DHT22;9172;49.948;9.208;2022-12-18T05:40:27;-4.80;99.90
18091;DHT22;9172;49.948;9.208;2022-12-18T05:42:56;-4.80;99.90
18091;DHT22;9172;49.948;9.208;2022-12-18T05:48:01;-4.80;99.90
18091;DHT22;9172;49.948;9.208;2022-12-18T05:50:30;-4.90;99.90
18091;DHT22;9172;49.948;9.208;2022-12-18T05:52:59;-4.90;99.90
18091;DHT22;9172;49.948;9.208;2022-12-18T05:55:27;-4.90;99.90
18091;DHT22;9172;49.948;9.208;2022-12-18T05:57:56;-4.90;99.90
18091;DHT22;9172;49.948;9.208;2022-12-18T06:00:24;-5.00;99.90
18091;DHT22;9172;49.948;9.208;2022-12-18T06:02:53;-5.00;99.90
18091;DHT22;9172;49.948;9.208;2022-12-18T06:05:22;-5.10;99.90
18091;DHT22;9172;49.948;9.208;2022-12-18T06:07:51;-5.20;99.90
18091;DHT22;9172;49.948;9.208;2022-12-18T06:10:20;-5.20;99.90
18091;DHT22;9172;49.948;9.208;2022-12-18T06:12:49;-5.10;99.90
18091;DHT22;9172;49.948;9.208;2022-12-18T06:15:18;-5.10;99.90
18091;DHT22;9172;49.948;9.208;2022-12-18T06:17:47;-5.00;99.90
18091;DHT22;9172;49.948;9.208;2022-12-18T06:20:16;-4.90;99.90
18091;DHT22;9172;49.948;9.208;2022-12-18T06:22:45;-4.80;99.90
18091;DHT22;9172;49.948;9.208;2022-12-18T06:25:15;-4.80;99.90
18091;DHT22;9172;49.948;9.208;2022-12-18T06:27:44;-4.80;99.90
18091;DHT22;9172;49.948;9.208;2022-12-18T06:30:16;-4.80;99.90
18091;DHT22;9172;49.948;9.208;2022-12-18T06:32:45;-4.80;99.90
18091;DHT22;9172;49.948;9.208;2022-12-18T06:35:14;-4.80;99.90
18091;DHT22;9172;49.948;9.208;2022-12-18T06:37:43;-4.80;99.90
18091;DHT22;9172;49.948;9.208;2022-12-18T06:40:13;-4.80;99.90
18091;DHT22;9172;49.948;9.208;2022-12-18T06:42:42;-4.80;99.90
18091;DHT22;9172;49.948;9.208;2022-12-18T06:45:11;-4.90;99.90
18091;DHT22;9172;49.948;9.208;2022-12-18T06:47:41;-4.90;99.90
18091;DHT22;9172;49.948;9.208;2022-12-18T06:50:10;-4.90;99.90
18091;DHT22;9172;49.948;9.208;2022-12-18T06:52:38;-4.90;99.90
18091;DHT22;9172;49.948;9.208;2022-12-18T06:55:08;-4.80;99.90
18091;DHT22;9172;49.948;9.208;2022-12-18T06:57:37;-4.90;99.90
18091;DHT22;9172;49.948;9.208;2022-12-18T07:00:08;-5.00;99.90
18091;DHT22;9172;49.948;9.208;2022-12-18T07:02:37;-5.00;99.90
18091;DHT22;9172;49.948;9.208;2022-12-18T07:05:07;-5.00;99.90
18091;DHT22;9172;49.948;9.208;2022-12-18T07:07:36;-5.00;99.90
18091;DHT22;9172;49.948;9.208;2022-12-18T07:10:07;-5.10;99.90
18091;DHT22;9172;49.948;9.208;2022-12-18T07:12:36;-5.00;99.90
18091;DHT22;9172;49.948;9.208;2022-12-18T07:15:07;-5.10;99.90
18091;DHT22;9172;49.948;9.208;2022-12-18T07:17:38;-5.00;99.90
18091;DHT22;9172;49.948;9.208;2022-12-18T07:22:44;-4.90;99.90
18091;DHT22;9172;49.948;9.208;2022-12-18T07:27:49;-4.80;99.90
18091;DHT22;9172;49.948;9.208;2022-12-18T07:32:55;-4.90;99.90
18091;DHT22;9172;49.948;9.208;2022-12-18T07:38:04;-4.80;99.90
18091;DHT22;9172;49.948;9.208;2022-12-18T07:40:32;-4.90;99.90
18091;DHT22;9172;49.948;9.208;2022-12-18T07:45:39;-4.90;99.90
18091;DHT22;9172;49.948;9.208;2022-12-18T07:48:09;-4.90;99.90
18091;DHT22;9172;49.948;9.208;2022-12-18T07:50:38;-5.00;99.90
18091;DHT22;9172;49.948;9.208;2022-12-18T07:53:08;-5.00;99.90
18091;DHT22;9172;49.948;9.208;2022-12-18T07:55:36;-4.90;99.90
18091;DHT22;9172;49.948;9.208;2022-12-18T07:58:05;-4.80;99.90
18091;DHT22;9172;49.948;9.208;2022-12-18T08:00:34;-4.70;99.90
18091;DHT22;9172;49.948;9.208;2022-12-18T08:03:03;-4.70;99.90
18091;DHT22;9172;49.948;9.208;2022-12-18T08:08:08;-4.70;99.90
18091;DHT22;9172;49.948;9.208;2022-12-18T08:10:37;-4.80;99.90
18091;DHT22;9172;49.948;9.208;2022-12-18T08:13:08;-4.70;99.90
18091;DHT22;9172;49.948;9.208;2022-12-18T08:15:36;-4.70;99.90
18091;DHT22;9172;49.948;9.208;2022-12-18T08:18:05;-4.60;99.90
18091;DHT22;9172;49.948;9.208;2022-12-18T08:20:33;-4.60;99.90
18091;DHT22;9172;49.948;9.208;2022-12-18T08:23:03;-4.50;99.90
18091;DHT22;9172;49.948;9.208;2022-12-18T08:25:31;-4.50;99.90
18091;DHT22;9172;49.948;9.208;2022-12-18T08:28:01;-4.50;99.90
18091;DHT22;9172;49.948;9.208;2022-12-18T08:30:30;-4.50;99.90
18091;DHT22;9172;49.948;9.208;2022-12-18T08:33:01;-4.40;99.90
18091;DHT22;9172;49.948;9.208;2022-12-18T08:35:29;-4.40;99.90
18091;DHT22;9172;49.948;9.208;2022-12-18T08:37:58;-4.40;99.90
18091;DHT22;9172;49.948;9.208;2022-12-18T08:40:26;-4.30;99.90
18091;DHT22;9172;49.948;9.208;2022-12-18T08:42:56;-4.30;99.90
18091;DHT22;9172;49.948;9.208;2022-12-18T08:45:43;-4.30;99.90
18091;DHT22;9172;49.948;9.208;2022-12-18T08:48:13;-4.20;99.90
18091;DHT22;9172;49.948;9.208;2022-12-18T08:50:43;-4.20;99.90
18091;DHT22;9172;49.948;9.208;2022-12-18T08:53:11;-4.10;99.90
18091;DHT22;9172;49.948;9.208;2022-12-18T08:55:40;-4.10;99.90
18091;DHT22;9172;49.948;9.208;2022-12-18T08:58:10;-4.20;99.90
18091;DHT22;9172;49.948;9.208;2022-12-18T09:00:39;-4.40;99.90
18091;DHT22;9172;49.948;9.208;2022-12-18T09:03:12;-4.50;99.90
18091;DHT22;9172;49.948;9.208;2022-12-18T09:05:41;-4.70;99.90
18091;DHT22;9172;49.948;9.208;2022-12-18T09:08:11;-4.60;99.90
18091;DHT22;9172;49.948;9.208;2022-12-18T09:10:43;-4.50;99.90
18091;DHT22;9172;49.948;9.208;2022-12-18T09:13:12;-4.40;99.90
18091;DHT22;9172;49.948;9.208;2022-12-18T09:15:42;-4.20;99.90
18091;DHT22;9172;49.948;9.208;2022-12-18T09:18:13;-4.00;99.90
18091;DHT22;9172;49.948;9.208;2022-12-18T09:20:43;-3.80;99.90
18091;DHT22;9172;49.948;9.208;2022-12-18T09:23:12;-3.80;99.90
18091;DHT22;9172;49.948;9.208;2022-12-18T09:25:41;-3.70;99.90
18091;DHT22;9172;49.948;9.208;2022-12-18T09:28:12;-3.80;99.90
18091;DHT22;9172;49.948;9.208;2022-12-18T09:30:43;-3.70;99.90
18091;DHT22;9172;49.948;9.208;2022-12-18T09:33:12;-3.60;99.90
18091;DHT22;9172;49.948;9.208;2022-12-18T09:35:42;-3.40;99.90
18091;DHT22;9172;49.948;9.208;2022-12-18T09:40:51;-3.20;99.90
18091;DHT22;9172;49.948;9.208;2022-12-18T09:43:22;-3.30;99.90
18091;DHT22;9172;49.948;9.208;2022-12-18T09:45:55;-3.30;99.90
18091;DHT22;9172;49.948;9.208;2022-12-18T09:48:28;-3.30;99.90
18091;DHT22;9172;49.948;9.208;2022-12-18T09:51:00;-3.30;99.90
18091;DHT22;9172;49.948;9.208;2022-12-18T09:53:31;-3.30;99.90
18091;DHT22;9172;49.948;9.208;2022-12-18T09:56:01;-3.30;99.90
18091;DHT22;9172;49.948;9.208;2022-12-18T09:58:33;-3.20;99.90
18091;DHT22;9172;49.948;9.208;2022-12-18T10:01:06;-3.20;99.90
18091;DHT22;9172;49.948;9.208;2022-12-18T10:03:34;-3.30;99.90
18091;DHT22;9172;49.948;9.208;2022-12-18T10:06:06;-3.30;99.90
18091;DHT22;9172;49.948;9.208;2022-12-18T10:08:39;-3.30;99.90
18091;DHT22;9172;49.948;9.208;2022-12-18T10:11:21;-3.30;99.90
18091;DHT22;9172;49.948;9.208;2022-12-18T10:13:51;-3.30;99.90
18091;DHT22;9172;49.948;9.208;2022-12-18T10:16:23;-3.30;99.90
18091;DHT22;9172;49.948;9.208;2022-12-18T10:19:01;-3.20;99.90
18091;DHT22;9172;49.948;9.208;2022-12-18T10:21:36;-3.30;99.90
18091;DHT22;9172;49.948;9.208;2022-12-18T10:24:10;-3.20;99.90
18091;DHT22;9172;49.948;9.208;2022-12-18T10:26:38;-3.20;99.90
18091;DHT22;9172;49.948;9.208;2022-12-18T10:29:12;-3.00;99.90
18091;DHT22;9172;49.948;9.208;2022-12-18T10:31:41;-3.00;99.90
18091;DHT22;9172;49.948;9.208;2022-12-18T10:34:10;-3.10;99.90
18091;DHT22;9172;49.948;9.208;2022-12-18T10:36:39;-3.00;99.90
18091;DHT22;9172;49.948;9.208;2022-12-18T10:39:16;-3.20;99.90
18091;DHT22;9172;49.948;9.208;2022-12-18T10:41:45;-3.20;99.90
18091;DHT22;9172;49.948;9.208;2022-12-18T10:44:17;-3.00;99.90
18091;DHT22;9172;49.948;9.208;2022-12-18T10:46:49;-2.90;99.90
18091;DHT22;9172;49.948;9.208;2022-12-18T10:49:25;-2.90;99.90
18091;DHT22;9172;49.948;9.208;2022-12-18T10:52:11;-2.80;99.90
18091;DHT22;9172;49.948;9.208;2022-12-18T10:54:45;-2.80;99.90
18091;DHT22;9172;49.948;9.208;2022-12-18T10:57:28;-2.80;99.90
18091;DHT22;9172;49.948;9.208;2022-12-18T10:59:54;-2.90;99.90
18091;DHT22;9172;49.948;9.208;2022-12-18T11:02:28;-2.90;99.90
18091;DHT22;9172;49.948;9.208;2022-12-18T11:04:59;-2.80;99.90
18091;DHT22;9172;49.948;9.208;2022-12-18T11:07:40;-2.80;99.90
18091;DHT22;9172;49.948;9.208;2022-12-18T11:10:15;-2.90;99.90
18091;DHT22;9172;49.948;9.208;2022-12-18T11:12:44;-3.00;99.90
18091;DHT22;9172;49.948;9.208;2022-12-18T11:15:18;-2.90;99.90
18091;DHT22;9172;49.948;9.208;2022-12-18T11:17:49;-2.90;99.90
18091;DHT22;9172;49.948;9.208;2022-12-18T11:20:26;-2.80;99.90
18091;DHT22;9172;49.948;9.208;2022-12-18T11:22:58;-2.80;99.90
18091;DHT22;9172;49.948;9.208;2022-12-18T11:25:28;-2.90;99.90
18091;DHT22;9172;49.948;9.208;2022-12-18T11:27:58;-2.80;99.90
18091;DHT22;9172;49.948;9.208;2022-12-18T11:30:29;-2.80;99.90
18091;DHT22;9172;49.948;9.208;2022-12-18T11:33:02;-2.70;99.90
18091;DHT22;9172;49.948;9.208;2022-12-18T11:35:44;-2.70;99.90
18091;DHT22;9172;49.948;9.208;2022-12-18T11:38:18;-2.60;99.90
18091;DHT22;9172;49.948;9.208;2022-12-18T11:43:31;-2.60;99.90
18091;DHT22;9172;49.948;9.208;2022-12-18T11:46:02;-2.50;99.90
18091;DHT22;9172;49.948;9.208;2022-12-18T11:51:17;-2.40;99.90
18091;DHT22;9172;49.948;9.208;2022-12-18T11:53:44;-2.30;99.90
18091;DHT22;9172;49.948;9.208;2022-12-18T11:56:27;-2.30;99.90
18091;DHT22;9172;49.948;9.208;2022-12-18T11:59:00;-2.40;99.90
18091;DHT22;9172;49.948;9.208;2022-12-18T12:01:36;-2.40;99.90
18091;DHT22;9172;49.948;9.208;2022-12-18T12:04:17;-2.50;99.90
18091;DHT22;9172;49.948;9.208;2022-12-18T12:06:49;-2.50;99.90
18091;DHT22;9172;49.948;9.208;2022-12-18T12:09:22;-2.60;99.90
18091;DHT22;9172;49.948;9.208;2022-12-18T12:11:58;-2.60;99.90
18091;DHT22;9172;49.948;9.208;2022-12-18T12:14:40;-2.50;99.90
18091;DHT22;9172;49.948;9.208;2022-12-18T12:17:12;-2.50;99.90
18091;DHT22;9172;49.948;9.208;2022-12-18T12:19:46;-2.40;99.90
18091;DHT22;9172;49.948;9.208;2022-12-18T12:22:18;-2.40;99.90
18091;DHT22;9172;49.948;9.208;2022-12-18T12:24:55;-2.50;99.90
18091;DHT22;9172;49.948;9.208;2022-12-18T12:27:30;-2.50;99.90
18091;DHT22;9172;49.948;9.208;2022-12-18T12:30:04;-2.60;99.90
18091;DHT22;9172;49.948;9.208;2022-12-18T12:32:51;-2.60;99.90
18091;DHT22;9172;49.948;9.208;2022-12-18T12:35:28;-2.50;99.90
18091;DHT22;9172;49.948;9.208;2022-12-18T12:38:02;-2.50;99.90
18091;DHT22;9172;49.948;9.208;2022-12-18T12:43:20;-2.50;99.90
18091;DHT22;9172;49.948;9.208;2022-12-18T12:45:52;-2.50;99.90
18091;DHT22;9172;49.948;9.208;2022-12-18T12:48:31;-2.50;99.90
18091;DHT22;9172;49.948;9.208;2022-12-18T12:50:59;-2.50;99.90
18091;DHT22;9172;49.948;9.208;2022-12-18T12:53:32;-2.50;99.90
18091;DHT22;9172;49.948;9.208;2022-12-18T12:56:01;-2.40;99.90
18091;DHT22;9172;49.948;9.208;2022-12-18T12:58:36;-2.40;99.90
18091;DHT22;9172;49.948;9.208;2022-12-18T13:01:10;-2.40;99.90
18091;DHT22;9172;49.948;9.208;2022-12-18T13:03:46;-2.40;99.90
18091;DHT22;9172;49.948;9.208;2022-12-18T13:06:19;-2.50;99.90
18091;DHT22;9172;49.948;9.208;2022-12-18T13:08:55;-2.50;99.90
18091;DHT22;9172;49.948;9.208;2022-12-18T13:11:36;-2.40;99.90
18091;DHT22;9172;49.948;9.208;2022-12-18T13:14:30;-2.40;99.90
18091;DHT22;9172;49.948;9.208;2022-12-18T13:17:28;-2.40;99.90
18091;DHT22;9172;49.948;9.208;2022-12-18T13:20:07;-2.40;99.90
18091;DHT22;9172;49.948;9.208;2022-12-18T13:22:38;-2.50;99.90
18091;DHT22;9172;49.948;9.208;2022-12-18T13:25:33;-2.50;99.90
18091;DHT22;9172;49.948;9.208;2022-12-18T13:28:12;-2.50;99.90
18091;DHT22;9172;49.948;9.208;2022-12-18T13:30:49;-2.60;99.90
18091;DHT22;9172;49.948;9.208;2022-12-18T13:33:52;-2.60;99.90
18091;DHT22;9172;49.948;9.208;2022-12-18T13:36:31;-2.60;99.90
18091;DHT22;9172;49.948;9.208;2022-12-18T13:39:21;-2.60;99.90
18091;DHT22;9172;49.948;9.208;2022-12-18T13:41:52;-2.50;99.90
18091;DHT22;9172;49.948;9.208;2022-12-18T13:44:28;-2.60;99.90
18091;DHT22;9172;49.948;9.208;2022-12-18T13:46:56;-2.50;99.90
18091;DHT22;9172;49.948;9.208;2022-12-18T13:49:28;-2.50;99.90
18091;DHT22;9172;49.948;9.208;2022-12-18T13:51:57;-2.50;99.90
18091;DHT22;9172;49.948;9.208;2022-12-18T13:57:23;-2.50;99.90
18091;DHT22;9172;49.948;9.208;2022-12-18T13:59:41;-2.50;99.90
18091;DHT22;9172;49.948;9.208;2022-12-18T14:02:13;-2.60;99.90
18091;DHT22;9172;49.948;9.208;2022-12-18T14:04:45;-2.60;99.90
18091;DHT22;9172;49.948;9.208;2022-12-18T14:07:16;-2.50;99.90
18091;DHT22;9172;49.948;9.208;2022-12-18T14:09:47;-2.50;99.90
18091;DHT22;9172;49.948;9.208;2022-12-18T14:12:19;-2.50;99.90
18091;DHT22;9172;49.948;9.208;2022-12-18T14:15:13;-2.50;99.90
18091;DHT22;9172;49.948;9.208;2022-12-18T14:17:40;-2.50;99.90
18091;DHT22;9172;49.948;9.208;2022-12-18T14:20:14;-2.40;99.90
18091;DHT22;9172;49.948;9.208;2022-12-18T14:22:45;-2.50;99.90
18091;DHT22;9172;49.948;9.208;2022-12-18T14:25:20;-2.40;99.90
18091;DHT22;9172;49.948;9.208;2022-12-18T14:27:52;-2.50;99.90
18091;DHT22;9172;49.948;9.208;2022-12-18T14:30:28;-2.50;99.90
18091;DHT22;9172;49.948;9.208;2022-12-18T14:33:02;-2.50;99.90
18091;DHT22;9172;49.948;9.208;2022-12-18T14:35:31;-2.50;99.90
18091;DHT22;9172;49.948;9.208;2022-12-18T14:40:46;-2.50;99.90
18091;DHT22;9172;49.948;9.208;2022-12-18T14:43:15;-2.40;99.90
18091;DHT22;9172;49.948;9.208;2022-12-18T14:45:45;-2.50;99.90
18091;DHT22;9172;49.948;9.208;2022-12-18T14:48:17;-2.50;99.90
18091;DHT22;9172;49.948;9.208;2022-12-18T14:50:54;-2.40;99.90
18091;DHT22;9172;49.948;9.208;2022-12-18T14:53:27;-2.40;99.90
18091;DHT22;9172;49.948;9.208;2022-12-18T14:55:56;-2.40;99.90
18091;DHT22;9172;49.948;9.208;2022-12-18T14:58:25;-2.40;99.90
18091;DHT22;9172;49.948;9.208;2022-12-18T15:00:53;-2.50;99.90
18091;DHT22;9172;49.948;9.208;2022-12-18T15:03:22;-2.40;99.90
18091;DHT22;9172;49.948;9.208;2022-12-18T15:05:51;-2.50;99.90
18091;DHT22;9172;49.948;9.208;2022-12-18T15:08:34;-2.50;99.90
18091;DHT22;9172;49.948;9.208;2022-12-18T15:13:38;-2.50;99.90
18091;DHT22;9172;49.948;9.208;2022-12-18T15:18:46;-2.50;99.90
18091;DHT22;9172;49.948;9.208;2022-12-18T15:21:18;-2.50;99.90
18091;DHT22;9172;49.948;9.208;2022-12-18T15:23:49;-2.50;99.90
18091;DHT22;9172;49.948;9.208;2022-12-18T15:26:19;-2.50;99.90
18091;DHT22;9172;49.948;9.208;2022-12-18T15:28:50;-2.50;99.90
18091;DHT22;9172;49.948;9.208;2022-12-18T15:31:26;-2.50;99.90
18091;DHT22;9172;49.948;9.208;2022-12-18T15:36:50;-2.40;99.90
18091;DHT22;9172;49.948;9.208;2022-12-18T15:39:18;-2.40;99.90
18091;DHT22;9172;49.948;9.208;2022-12-18T15:41:47;-2.40;99.90
18091;DHT22;9172;49.948;9.208;2022-12-18T15:44:33;-2.40;99.90
18091;DHT22;9172;49.948;9.208;2022-12-18T15:47:02;-2.40;99.90
18091;DHT22;9172;49.948;9.208;2022-12-18T15:49:31;-2.40;99.90
18091;DHT22;9172;49.948;9.208;2022-12-18T15:52:01;-2.40;99.90
18091;DHT22;9172;49.948;9.208;2022-12-18T15:54:30;-2.40;99.90
18091;DHT22;9172;49.948;9.208;2022-12-18T15:57:18;-2.40;99.90
18091;DHT22;9172;49.948;9.208;2022-12-18T15:59:53;-2.40;99.90
18091;DHT22;9172;49.948;9.208;2022-12-18T16:02:24;-2.40;99.90
18091;DHT22;9172;49.948;9.208;2022-12-18T16:04:54;-2.40;99.90
18091;DHT22;9172;49.948;9.208;2022-12-18T16:07:23;-2.40;99.90
18091;DHT22;9172;49.948;9.208;2022-12-18T16:09:52;-2.30;99.90
18091;DHT22;9172;49.948;9.208;2022-12-18T16:12:24;-2.30;99.90
18091;DHT22;9172;49.948;9.208;2022-12-18T16:14:53;-2.40;99.90
18091;DHT22;9172;49.948;9.208;2022-12-18T16:17:21;-2.30;99.90
18091;DHT22;9172;49.948;9.208;2022-12-18T16:19:51;-2.30;99.90
18091;DHT22;9172;49.948;9.208;2022-12-18T16:22:22;-2.30;99.90
18091;DHT22;9172;49.948;9.208;2022-12-18T16:27:29;-2.10;99.90
18091;DHT22;9172;49.948;9.208;2022-12-18T16:29:59;-2.10;99.90
18091;DHT22;9172;49.948;9.208;2022-12-18T16:32:27;-2.10;99.90
18091;DHT22;9172;49.948;9.208;2022-12-18T16:37:37;-2.20;99.90
18091;DHT22;9172;49.948;9.208;2022-12-18T16:40:09;-2.20;99.90
18091;DHT22;9172;49.948;9.208;2022-12-18T16:42:39;-2.10;99.90
18091;DHT22;9172;49.948;9.208;2022-12-18T16:45:10;-2.10;99.90
18091;DHT22;9172;49.948;9.208;2022-12-18T16:47:40;-2.00;99.90
18091;DHT22;9172;49.948;9.208;2022-12-18T16:50:11;-2.00;99.90
18091;DHT22;9172;49.948;9.208;2022-12-18T16:52:41;-2.00;99.90
18091;DHT22;9172;49.948;9.208;2022-12-18T16:55:10;-2.00;99.90
18091;DHT22;9172;49.948;9.208;2022-12-18T16:57:39;-2.00;99.90
18091;DHT22;9172;49.948;9.208;2022-12-18T17:00:10;-1.90;99.90
18091;DHT22;9172;49.948;9.208;2022-12-18T17:02:39;-2.00;99.90
18091;DHT22;9172;49.948;9.208;2022-12-18T17:05:08;-2.00;99.90
18091;DHT22;9172;49.948;9.208;2022-12-18T17:07:37;-2.00;99.90
18091;DHT22;9172;49.948;9.208;2022-12-18T17:10:09;-2.00;99.90
18091;DHT22;9172;49.948;9.208;2022-12-18T17:12:38;-2.10;99.90
18091;DHT22;9172;49.948;9.208;2022-12-18T17:15:11;-2.10;99.90